createdAt,value
2023-04-03T00:00:46.079Z,0.55
2023-04-03T00:03:12.622Z,0.50
2023-04-03T00:05:39.165Z,0.43
2023-04-03T00:08:08.811Z,0.40
2023-04-03T00:10:35.907Z,0.38
2023-04-03T00:13:03.682Z,0.50
2023-04-03T00:15:30.308Z,0.30
2023-04-03T00:17:57.153Z,0.50
2023-04-03T00:20:23.835Z,0.50
2023-04-03T00:22:50.447Z,0.40
2023-04-03T00:25:16.997Z,0.50
2023-04-03T00:27:43.476Z,0.98
2023-04-03T00:30:14.014Z,0.47
2023-04-03T00:32:40.627Z,0.40
2023-04-03T00:35:07.658Z,0.40
2023-04-03T00:37:34.222Z,0.63
2023-04-03T00:40:00.855Z,0.60
2023-04-03T00:42:28.141Z,0.82
2023-04-03T00:44:57.526Z,0.80
2023-04-03T00:47:25.516Z,0.30
2023-04-03T00:49:53.551Z,0.50
2023-04-03T00:52:24.250Z,0.80
2023-04-03T00:54:55.998Z,0.32
2023-04-03T00:57:23.230Z,0.47
2023-04-03T00:59:54.674Z,0.30
2023-04-03T01:02:21.204Z,0.50
2023-04-03T01:04:48.293Z,0.40
2023-04-03T01:07:22.457Z,0.60
2023-04-03T01:09:54.028Z,0.50
2023-04-03T01:12:22.892Z,0.40
2023-04-03T01:14:52.084Z,0.60
2023-04-03T01:17:40.578Z,0.73
2023-04-03T01:20:32.950Z,0.60
2023-04-03T01:23:12.048Z,0.60
2023-04-03T01:25:50.602Z,0.47
2023-04-03T01:28:18.565Z,0.50
2023-04-03T01:31:03.532Z,0.65
2023-04-03T01:33:33.419Z,0.60
2023-04-03T01:36:00.046Z,0.70
2023-04-03T01:38:27.770Z,0.70
2023-04-03T01:40:54.615Z,0.63
2023-04-03T01:43:21.178Z,0.65
2023-04-03T01:45:47.819Z,0.55
2023-04-03T01:48:14.627Z,0.60
2023-04-03T01:50:41.347Z,0.50
2023-04-03T01:53:08.303Z,0.77
2023-04-03T01:55:34.918Z,0.30
2023-04-03T01:58:01.493Z,0.93
2023-04-03T02:00:28.358Z,0.50
2023-04-03T02:02:54.956Z,0.70
2023-04-03T02:05:21.574Z,0.50
2023-04-03T02:07:48.135Z,1.02
2023-04-03T02:10:14.880Z,0.50
2023-04-03T02:12:42.305Z,0.53
2023-04-03T02:15:09.262Z,0.50
2023-04-03T02:17:36.428Z,0.35
2023-04-03T02:20:04.190Z,0.52
2023-04-03T02:22:31.464Z,0.40
2023-04-03T02:24:57.935Z,0.80
2023-04-03T02:27:24.514Z,0.50
2023-04-03T02:29:51.000Z,0.88
2023-04-03T02:32:17.678Z,0.50
2023-04-03T02:34:44.558Z,0.77
2023-04-03T02:37:13.250Z,0.40
2023-04-03T02:39:40.379Z,0.70
2023-04-03T02:42:07.169Z,0.80
2023-04-03T02:44:34.205Z,0.90
2023-04-03T02:47:00.742Z,1.00
2023-04-03T02:49:27.219Z,0.70
2023-04-03T02:51:53.787Z,0.60
2023-04-03T02:54:20.328Z,1.17
2023-04-03T02:56:52.857Z,0.80
2023-04-03T02:59:19.600Z,0.60
2023-04-03T03:01:46.864Z,0.70
2023-04-03T03:04:13.699Z,0.70
2023-04-03T03:06:41.889Z,0.88
2023-04-03T03:09:09.361Z,0.50
2023-04-03T03:11:35.865Z,0.60
2023-04-03T03:14:02.993Z,0.60
2023-04-03T03:16:29.538Z,0.57
2023-04-03T03:18:57.857Z,0.70
2023-04-03T03:21:24.883Z,0.50
2023-04-03T03:23:51.394Z,0.73
2023-04-03T03:26:17.937Z,0.50
2023-04-03T03:28:44.468Z,0.88
2023-04-03T03:31:13.224Z,0.77
2023-04-03T03:33:41.150Z,0.50
2023-04-03T03:36:08.086Z,0.80
2023-04-03T03:38:36.472Z,0.67
2023-04-03T03:41:03.002Z,0.50
2023-04-03T03:43:33.002Z,0.50
2023-04-03T03:45:59.554Z,0.82
2023-04-03T03:48:27.298Z,1.00
2023-04-03T03:50:53.755Z,0.57
2023-04-03T03:53:24.013Z,0.60
2023-04-03T03:55:53.479Z,1.15
2023-04-03T03:58:23.073Z,0.60
2023-04-03T04:00:49.675Z,0.60
2023-04-03T04:03:16.714Z,0.67
2023-04-03T04:05:46.369Z,0.70
2023-04-03T04:08:13.339Z,0.70
2023-04-03T04:10:39.978Z,0.68
2023-04-03T04:13:07.660Z,1.50
2023-04-03T04:15:35.202Z,0.73
2023-04-03T04:18:02.256Z,0.70
2023-04-03T04:20:28.830Z,0.70
2023-04-03T04:22:55.376Z,0.50
2023-04-03T04:25:23.214Z,0.82
2023-04-03T04:27:49.776Z,0.80
2023-04-03T04:30:16.992Z,0.70
2023-04-03T04:32:46.765Z,0.60
2023-04-03T04:35:16.223Z,0.80
2023-04-03T04:37:46.549Z,0.52
2023-04-03T04:40:13.906Z,1.10
2023-04-03T04:42:41.114Z,0.70
2023-04-03T04:45:08.495Z,0.70
2023-04-03T04:47:36.601Z,0.70
2023-04-03T04:50:03.697Z,0.63
2023-04-03T04:52:32.145Z,0.97
2023-04-03T04:54:58.692Z,0.82
2023-04-03T04:57:25.686Z,0.77
2023-04-03T04:59:52.261Z,1.13
2023-04-03T05:02:18.804Z,1.08
2023-04-03T05:04:45.792Z,1.07
2023-04-03T05:07:19.001Z,0.90
2023-04-03T05:09:45.735Z,0.90
2023-04-03T05:12:13.948Z,1.10
2023-04-03T05:14:47.097Z,1.40
2023-04-03T05:17:13.765Z,1.10
2023-04-03T05:19:44.518Z,1.02
2023-04-03T05:22:12.936Z,1.20
2023-04-03T05:24:39.817Z,0.95
2023-04-03T05:27:07.253Z,1.40
2023-04-03T05:29:37.708Z,0.80
2023-04-03T05:32:05.619Z,1.17
2023-04-03T05:34:32.612Z,0.98
2023-04-03T05:37:00.137Z,0.98
2023-04-03T05:39:28.415Z,0.80
2023-04-03T05:41:55.326Z,0.70
2023-04-03T05:44:22.479Z,1.10
2023-04-03T05:46:50.430Z,1.10
2023-04-03T05:49:17.313Z,0.98
2023-04-03T05:51:45.698Z,1.00
2023-04-03T05:54:38.325Z,0.73
2023-04-03T05:57:17.093Z,0.82
2023-04-03T05:59:44.122Z,0.90
2023-04-03T06:02:13.529Z,1.20
2023-04-03T06:04:40.302Z,0.73
2023-04-03T06:07:08.484Z,0.97
2023-04-03T06:09:35.067Z,0.93
2023-04-03T06:12:02.792Z,1.15
2023-04-03T06:14:30.272Z,0.82
2023-04-03T06:16:57.183Z,1.38
2023-04-03T06:19:24.181Z,1.13
2023-04-03T06:21:55.179Z,0.85
2023-04-03T06:24:23.761Z,0.75
2023-04-03T06:26:52.232Z,1.00
2023-04-03T06:29:19.508Z,0.65
2023-04-03T06:31:46.444Z,1.00
2023-04-03T06:34:13.457Z,0.90
2023-04-03T06:36:41.031Z,0.80
2023-04-03T06:39:07.950Z,0.80
2023-04-03T06:41:36.004Z,0.70
2023-04-03T06:44:04.444Z,1.27
2023-04-03T06:46:31.591Z,0.60
2023-04-03T06:48:58.148Z,0.68
2023-04-03T06:51:30.273Z,0.80
2023-04-03T06:53:59.449Z,0.82
2023-04-03T06:56:27.342Z,0.60
2023-04-03T06:59:01.706Z,0.77
2023-04-03T07:01:30.909Z,0.77
2023-04-03T07:03:58.121Z,0.52
2023-04-03T07:06:27.706Z,0.88
2023-04-03T07:08:55.234Z,0.60
2023-04-03T07:11:21.864Z,0.73
2023-04-03T07:13:48.521Z,0.82
2023-04-03T07:16:15.079Z,0.50
2023-04-03T07:18:42.374Z,0.57
2023-04-03T07:21:08.887Z,0.40
2023-04-03T07:23:35.347Z,0.70
2023-04-03T07:26:03.130Z,0.40
2023-04-03T07:28:30.700Z,0.55
2023-04-03T07:31:03.384Z,0.50
2023-04-03T07:33:30.726Z,0.60
2023-04-03T07:35:57.787Z,0.47
2023-04-03T07:38:24.350Z,0.57
2023-04-03T07:40:51.703Z,0.35
2023-04-03T07:43:19.915Z,0.47
2023-04-03T07:45:47.897Z,0.30
2023-04-03T07:48:14.626Z,0.30
2023-04-03T07:50:41.807Z,0.30
2023-04-03T07:53:08.866Z,0.40
2023-04-03T07:55:38.259Z,0.52
2023-04-03T07:58:05.744Z,0.30
2023-04-03T08:00:32.283Z,0.35
2023-04-03T08:02:58.883Z,0.40
2023-04-03T08:05:26.296Z,0.50
2023-04-03T08:07:53.083Z,0.30
2023-04-03T08:10:19.576Z,0.53
2023-04-03T08:12:49.618Z,0.30
2023-04-03T08:15:17.064Z,0.20
2023-04-03T08:17:43.545Z,0.30
2023-04-03T08:20:11.118Z,0.25
2023-04-03T08:22:37.583Z,0.80
2023-04-03T08:25:04.293Z,0.30
2023-04-03T08:27:31.018Z,0.35
2023-04-03T08:29:57.907Z,0.30
2023-04-03T08:32:25.359Z,0.40
2023-04-03T08:34:52.011Z,0.50
2023-04-03T08:37:18.774Z,0.20
2023-04-03T08:39:45.659Z,0.30
2023-04-03T08:42:25.393Z,0.20
2023-04-03T08:45:02.247Z,0.20
2023-04-03T08:47:34.938Z,0.20
2023-04-03T08:50:05.425Z,0.50
2023-04-03T08:52:48.859Z,0.30
2023-04-03T08:55:34.095Z,0.20
2023-04-03T08:58:30.860Z,0.20
2023-04-03T09:01:07.888Z,0.20
2023-04-03T09:03:42.163Z,0.20
2023-04-03T09:06:16.179Z,0.20
2023-04-03T09:09:16.396Z,0.45
2023-04-03T09:12:10.123Z,0.20
2023-04-03T09:15:02.716Z,0.20
2023-04-03T09:17:42.464Z,0.30
2023-04-03T09:20:36.692Z,0.10
2023-04-03T09:23:16.365Z,0.20
2023-04-03T09:25:43.658Z,0.10
2023-04-03T09:28:11.062Z,0.10
2023-04-03T09:30:39.358Z,0.20
2023-04-03T09:33:07.196Z,0.22
2023-04-03T09:35:47.442Z,0.20
2023-04-03T09:38:23.146Z,0.10
2023-04-03T09:41:03.678Z,0.20
2023-04-03T09:43:32.822Z,0.13
2023-04-03T09:46:39.138Z,0.10
2023-04-03T09:49:09.313Z,0.20
2023-04-03T09:51:37.341Z,0.20
2023-04-03T09:54:31.729Z,0.20
2023-04-03T09:57:07.004Z,0.10
2023-04-03T09:59:34.133Z,0.20
2023-04-03T10:02:04.946Z,0.10
2023-04-03T10:04:40.940Z,0.40
2023-04-03T10:07:29.144Z,0.13
2023-04-03T10:10:00.985Z,0.10
2023-04-03T10:12:27.554Z,0.40
2023-04-03T10:14:53.980Z,0.20
2023-04-03T10:17:49.699Z,0.20
2023-04-03T10:20:28.470Z,0.20
2023-04-03T10:23:18.838Z,0.10
2023-04-03T10:25:51.780Z,0.10
2023-04-03T10:28:24.633Z,0.30
2023-04-03T10:31:19.306Z,0.10
2023-04-03T10:34:25.150Z,0.40
2023-04-03T10:36:54.648Z,0.10
2023-04-03T10:39:44.507Z,0.20
2023-04-03T10:42:26.149Z,0.10
2023-04-03T10:45:24.130Z,0.20
2023-04-03T10:48:12.765Z,0.20
2023-04-03T10:51:08.001Z,0.20
2023-04-03T10:53:50.357Z,0.30
2023-04-03T10:56:36.686Z,0.10
2023-04-03T10:59:29.331Z,0.20
2023-04-03T11:02:00.466Z,0.20
2023-04-03T11:04:31.047Z,0.20
2023-04-03T11:07:03.227Z,0.20
2023-04-03T11:09:38.078Z,0.57
2023-04-03T11:12:19.654Z,0.28
2023-04-03T11:14:48.567Z,0.20
2023-04-03T11:17:24.337Z,0.10
2023-04-03T11:20:11.798Z,0.20
2023-04-03T11:22:42.714Z,0.25
2023-04-03T11:25:12.317Z,0.10
2023-04-03T11:27:47.160Z,0.30
2023-04-03T11:31:01.201Z,0.30
2023-04-03T11:33:52.471Z,0.40
2023-04-03T11:36:25.441Z,0.10
2023-04-03T11:39:00.251Z,0.20
2023-04-03T11:41:30.213Z,0.10
2023-04-03T11:44:01.789Z,0.20
2023-04-03T11:46:51.878Z,0.30
2023-04-03T11:49:56.545Z,0.25
2023-04-03T11:52:44.819Z,0.20
2023-04-03T11:55:21.144Z,0.20
2023-04-03T11:58:04.293Z,0.30
2023-04-03T12:00:50.130Z,0.22
2023-04-03T12:03:25.853Z,0.20
2023-04-03T12:06:07.815Z,0.40
2023-04-03T12:08:34.275Z,0.30
2023-04-03T12:11:10.219Z,0.20
2023-04-03T12:13:40.526Z,0.30
2023-04-03T12:16:08.873Z,0.47
2023-04-03T12:18:50.569Z,0.60
2023-04-03T12:21:19.929Z,0.40
2023-04-03T12:24:09.153Z,0.20
2023-04-03T12:26:48.692Z,0.45
2023-04-03T12:29:15.640Z,0.30
2023-04-03T12:31:55.499Z,0.20
2023-04-03T12:34:28.087Z,0.60
2023-04-03T12:37:08.180Z,0.50
2023-04-03T12:39:56.564Z,0.30
2023-04-03T12:42:54.146Z,0.65
2023-04-03T12:45:23.061Z,0.40
2023-04-03T12:47:53.888Z,0.30
2023-04-03T12:50:33.703Z,0.38
2023-04-03T12:53:12.523Z,0.40
2023-04-03T12:55:39.322Z,0.50
2023-04-03T12:58:23.610Z,0.40
2023-04-03T13:01:13.049Z,0.50
2023-04-03T13:03:43.840Z,0.30
2023-04-03T13:06:23.946Z,0.40
2023-04-03T13:08:57.956Z,0.75
2023-04-03T13:11:26.313Z,0.43
2023-04-03T13:14:14.900Z,0.30
2023-04-03T13:16:42.400Z,0.38
2023-04-03T13:19:18.035Z,0.60
2023-04-03T13:21:45.843Z,0.60
2023-04-03T13:24:15.629Z,0.50
2023-04-03T13:26:43.489Z,0.63
2023-04-03T13:29:30.940Z,0.40
2023-04-03T13:31:59.600Z,0.50
2023-04-03T13:34:36.591Z,0.50
2023-04-03T13:37:05.321Z,0.60
2023-04-03T13:39:37.910Z,0.40
2023-04-03T13:42:34.682Z,0.57
2023-04-03T13:45:30.544Z,0.52
2023-04-03T13:48:20.261Z,0.70
2023-04-03T13:51:02.231Z,0.70
2023-04-03T13:53:30.997Z,0.50
2023-04-03T13:56:04.976Z,0.30
2023-04-03T13:58:33.370Z,0.45
2023-04-03T14:01:21.089Z,0.40
2023-04-03T14:03:57.725Z,0.43
2023-04-03T14:06:24.972Z,0.43
2023-04-03T14:08:52.741Z,0.30
2023-04-03T14:11:29.652Z,0.47
2023-04-03T14:14:01.187Z,0.40
2023-04-03T14:16:31.397Z,0.40
2023-04-03T14:18:57.971Z,0.30
2023-04-03T14:21:24.871Z,0.52
2023-04-03T14:23:51.743Z,0.40
2023-04-03T14:26:21.971Z,0.40
2023-04-03T14:28:51.203Z,0.30
2023-04-03T14:31:18.713Z,0.50
2023-04-03T14:33:46.298Z,0.40
2023-04-03T14:36:14.120Z,0.50
2023-04-03T14:38:42.128Z,0.50
2023-04-03T14:41:16.135Z,0.50
2023-04-03T14:43:44.755Z,0.60
2023-04-03T14:46:54.502Z,0.50
2023-04-03T14:49:27.239Z,0.52
2023-04-03T14:51:53.937Z,0.50
2023-04-03T14:54:26.436Z,0.50
2023-04-03T14:56:53.534Z,0.60
2023-04-03T14:59:22.359Z,0.50
2023-04-03T15:01:49.341Z,0.40
2023-04-03T15:04:19.586Z,0.40
2023-04-03T15:06:47.175Z,0.30
2023-04-03T15:09:20.582Z,0.50
2023-04-03T15:11:47.372Z,0.47
2023-04-03T15:14:14.912Z,0.40
2023-04-03T15:16:46.262Z,0.50
2023-04-03T15:19:13.526Z,0.50
2023-04-03T15:21:40.397Z,0.50
2023-04-03T15:24:07.338Z,0.30
2023-04-03T15:26:34.034Z,0.30
2023-04-03T15:29:00.555Z,0.40
2023-04-03T15:31:27.118Z,0.40
2023-04-03T15:33:53.623Z,0.43
2023-04-03T15:36:33.477Z,0.50
2023-04-03T15:39:01.191Z,0.30
2023-04-03T15:41:27.811Z,0.50
2023-04-03T15:43:54.329Z,0.45
2023-04-03T15:46:21.090Z,0.40
2023-04-03T15:48:47.701Z,0.30
2023-04-03T15:51:14.275Z,0.22
2023-04-03T15:53:40.815Z,0.57
2023-04-03T15:56:09.084Z,0.47
2023-04-03T15:58:35.616Z,0.40
2023-04-03T16:01:03.031Z,0.30
2023-04-03T16:03:29.734Z,0.30
2023-04-03T16:05:56.606Z,0.40
2023-04-03T16:08:23.501Z,0.30
2023-04-03T16:10:50.045Z,0.30
2023-04-03T16:13:16.635Z,0.40
2023-04-03T16:15:43.893Z,0.50
2023-04-03T16:18:11.472Z,0.43
2023-04-03T16:20:38.391Z,0.57
2023-04-03T16:23:05.543Z,0.50
2023-04-03T16:25:32.069Z,0.38
2023-04-03T16:27:58.694Z,0.40
2023-04-03T16:30:25.348Z,0.68
2023-04-03T16:32:52.123Z,0.60
2023-04-03T16:35:18.661Z,0.60
2023-04-03T16:37:45.493Z,0.60
2023-04-03T16:40:13.285Z,0.63
2023-04-03T16:42:40.176Z,0.47
2023-04-03T16:45:07.933Z,0.40
2023-04-03T16:47:34.534Z,0.30
2023-04-03T16:50:01.352Z,0.30
2023-04-03T16:52:28.014Z,0.32
2023-04-03T16:54:56.458Z,0.30
2023-04-03T16:57:25.690Z,0.30
2023-04-03T16:59:52.914Z,0.50
2023-04-03T17:02:20.887Z,0.55
2023-04-03T17:04:47.893Z,0.50
2023-04-03T17:07:14.731Z,0.50
2023-04-03T17:09:41.226Z,0.30
2023-04-03T17:12:07.828Z,0.40
2023-04-03T17:14:34.365Z,0.38
2023-04-03T17:17:00.980Z,0.22
2023-04-03T17:19:28.837Z,0.38
2023-04-03T17:21:56.113Z,0.50
2023-04-03T17:24:22.597Z,0.30
2023-04-03T17:26:49.212Z,0.20
2023-04-03T17:29:15.870Z,0.40
2023-04-03T17:31:42.498Z,0.40
2023-04-03T17:34:11.756Z,0.60
2023-04-03T17:36:39.234Z,0.40
2023-04-03T17:39:05.961Z,0.65
2023-04-03T17:41:32.533Z,0.50
2023-04-03T17:43:59.012Z,0.30
2023-04-03T17:46:26.434Z,0.40
2023-04-03T17:48:53.346Z,0.33
2023-04-03T17:51:22.677Z,0.50
2023-04-03T17:53:49.754Z,0.30
2023-04-03T17:56:24.754Z,0.40
2023-04-03T17:58:51.745Z,0.30
2023-04-03T18:01:20.884Z,0.30
2023-04-03T18:03:48.862Z,0.28
2023-04-03T18:06:18.151Z,0.40
2023-04-03T18:08:48.679Z,0.40
2023-04-03T18:11:16.474Z,0.30
2023-04-03T18:13:44.216Z,0.40
2023-04-03T18:16:12.903Z,0.30
2023-04-03T18:18:40.023Z,0.40
2023-04-03T18:21:09.452Z,0.60
2023-04-03T18:23:38.960Z,0.52
2023-04-03T18:26:08.081Z,0.40
2023-04-03T18:28:34.723Z,0.40
2023-04-03T18:31:02.336Z,0.75
2023-04-03T18:33:29.048Z,0.60
2023-04-03T18:35:55.651Z,0.70
2023-04-03T18:38:22.108Z,0.90
2023-04-03T18:40:50.061Z,0.60
2023-04-03T18:43:17.194Z,0.47
2023-04-03T18:45:44.057Z,0.68
2023-04-03T18:48:10.766Z,0.43
2023-04-03T18:50:37.327Z,0.50
2023-04-03T18:53:03.781Z,0.82
2023-04-03T18:55:31.023Z,0.80
2023-04-03T18:57:57.837Z,0.90
2023-04-03T19:00:24.407Z,0.52
2023-04-03T19:02:51.214Z,0.50
2023-04-03T19:05:18.963Z,0.30
2023-04-03T19:07:45.740Z,0.77
2023-04-03T19:10:17.219Z,0.57
2023-04-03T19:12:45.340Z,0.43
2023-04-03T19:15:13.709Z,0.90
2023-04-03T19:17:40.683Z,1.00
2023-04-03T19:20:08.454Z,0.75
2023-04-03T19:22:35.050Z,0.65
2023-04-03T19:25:01.998Z,0.90
2023-04-03T19:27:28.770Z,0.63
2023-04-03T19:29:55.292Z,0.70
2023-04-03T19:32:21.822Z,0.73
2023-04-03T19:34:48.395Z,0.88
2023-04-03T19:37:14.988Z,0.70
2023-04-03T19:39:41.451Z,0.80
2023-04-03T19:42:07.990Z,1.00
2023-04-03T19:44:36.335Z,0.90
2023-04-03T19:47:03.812Z,0.90
2023-04-03T19:49:30.715Z,1.80
2023-04-03T19:51:57.524Z,2.60
2023-04-03T19:54:24.298Z,2.58
2023-04-03T19:56:50.769Z,2.47
2023-04-03T19:59:17.573Z,1.70
2023-04-03T20:01:46.332Z,2.03
2023-04-03T20:04:12.874Z,2.10
2023-04-03T20:06:39.500Z,1.52
2023-04-03T20:09:05.978Z,1.35
2023-04-03T20:11:35.554Z,1.85
2023-04-03T20:14:02.550Z,1.55
2023-04-03T20:16:29.486Z,1.50
2023-04-03T20:18:56.416Z,1.33
2023-04-03T20:21:34.150Z,1.38
2023-04-03T20:24:02.562Z,1.33
2023-04-03T20:26:31.480Z,1.50
2023-04-03T20:29:00.761Z,1.27
2023-04-03T20:31:28.572Z,1.80
2023-04-03T20:33:55.188Z,1.60
2023-04-03T20:36:23.517Z,1.85
2023-04-03T20:38:50.507Z,1.95
2023-04-03T20:41:17.018Z,1.73
2023-04-03T20:43:45.466Z,2.83
2023-04-03T20:46:14.013Z,1.80
2023-04-03T20:48:40.918Z,2.20
2023-04-03T20:51:15.465Z,2.20
2023-04-03T20:53:43.005Z,2.03
2023-04-03T20:56:09.569Z,1.95
2023-04-03T20:58:39.023Z,1.95
2023-04-03T21:01:34.968Z,2.05
2023-04-03T21:04:36.693Z,2.13
2023-04-03T21:07:41.240Z,2.73
2023-04-03T21:10:46.512Z,2.40
2023-04-03T21:13:50.871Z,2.20
2023-04-03T21:16:17.330Z,2.05
2023-04-03T21:19:13.682Z,2.10
2023-04-03T21:21:40.487Z,1.70
2023-04-03T21:24:09.862Z,2.10
2023-04-03T21:26:38.250Z,1.80
2023-04-03T21:29:06.658Z,1.92
2023-04-03T21:31:59.149Z,2.05
2023-04-03T21:34:27.781Z,1.80
2023-04-03T21:37:01.805Z,2.75
2023-04-03T21:39:28.452Z,1.60
2023-04-03T21:41:54.961Z,1.42
2023-04-03T21:44:22.262Z,1.40
2023-04-03T21:46:49.746Z,1.60
2023-04-03T21:49:16.405Z,1.70
2023-04-03T21:51:42.968Z,1.52
2023-04-03T21:54:09.637Z,1.60
2023-04-03T21:56:36.200Z,1.58
2023-04-03T21:59:03.329Z,1.60
2023-04-03T22:01:30.343Z,1.52
2023-04-03T22:04:02.608Z,1.50
2023-04-03T22:06:29.934Z,1.60
2023-04-03T22:08:57.082Z,1.40
2023-04-03T22:11:27.515Z,1.73
2023-04-03T22:13:55.606Z,1.50
2023-04-03T22:16:23.542Z,1.83
2023-04-03T22:18:54.874Z,1.77
2023-04-03T22:21:22.025Z,1.73
2023-04-03T22:23:48.716Z,2.00
2023-04-03T22:26:15.609Z,1.65
2023-04-03T22:28:44.320Z,1.30
2023-04-03T22:31:13.345Z,1.48
2023-04-03T22:33:41.427Z,1.45
2023-04-03T22:36:09.533Z,1.40
2023-04-03T22:38:37.000Z,1.73
2023-04-03T22:41:05.777Z,1.90
2023-04-03T22:43:34.089Z,2.05
2023-04-03T22:46:02.030Z,1.60
2023-04-03T22:48:28.721Z,1.50
2023-04-03T22:50:55.621Z,1.67
2023-04-03T22:53:22.610Z,1.50
2023-04-03T22:56:00.319Z,1.40
2023-04-03T22:58:27.691Z,1.63
2023-04-03T23:01:11.111Z,1.80
2023-04-03T23:03:39.387Z,1.85
2023-04-03T23:06:06.704Z,1.40
2023-04-03T23:08:38.748Z,1.52
2023-04-03T23:11:07.311Z,1.60
2023-04-03T23:13:34.165Z,1.60
2023-04-03T23:16:01.785Z,1.73
2023-04-03T23:18:30.217Z,1.85
2023-04-03T23:20:58.780Z,1.40
2023-04-03T23:23:25.568Z,1.45
2023-04-03T23:25:59.945Z,1.90
2023-04-03T23:28:27.677Z,1.50
2023-04-03T23:30:59.341Z,1.40
2023-04-03T23:33:26.123Z,1.77
2023-04-03T23:35:52.700Z,1.75
2023-04-03T23:38:19.216Z,1.73
2023-04-03T23:40:47.005Z,1.88
2023-04-03T23:43:13.520Z,1.80
2023-04-03T23:45:40.432Z,1.73
2023-04-03T23:48:07.387Z,1.73
2023-04-03T23:50:33.887Z,1.87
2023-04-03T23:53:00.838Z,1.38
2023-04-03T23:55:27.555Z,1.67
2023-04-03T23:57:54.061Z,1.70
